createdAt,value
2019-04-10T00:00:53.005Z,6.60
2019-04-10T00:03:27.826Z,6.60
2019-04-10T00:05:52.140Z,6.60
2019-04-10T00:08:20.650Z,6.60
2019-04-10T00:10:49.096Z,6.60
2019-04-10T00:13:18.417Z,6.50
2019-04-10T00:15:47.005Z,6.40
2019-04-10T00:18:15.910Z,6.40
2019-04-10T00:20:44.916Z,6.50
2019-04-10T00:23:13.422Z,6.40
2019-04-10T00:25:41.877Z,6.40
2019-04-10T00:28:11.504Z,6.30
2019-04-10T00:30:40.965Z,6.30
2019-04-10T00:33:10.254Z,6.20
2019-04-10T00:35:39.406Z,6.20
2019-04-10T00:38:09.208Z,6.20
2019-04-10T00:40:39.424Z,6.10
2019-04-10T00:43:08.679Z,6.20
2019-04-10T00:45:37.646Z,6.20
2019-04-10T00:48:06.027Z,6.30
2019-04-10T00:50:34.805Z,6.30
2019-04-10T00:53:03.830Z,6.40
2019-04-10T00:55:32.836Z,6.40
2019-04-10T00:58:02.268Z,6.40
2019-04-10T01:00:30.876Z,6.40
2019-04-10T01:02:59.402Z,6.40
2019-04-10T01:05:27.729Z,6.40
2019-04-10T01:07:56.381Z,6.40
2019-04-10T01:10:24.992Z,6.40
2019-04-10T01:12:54.218Z,6.40
2019-04-10T01:15:23.238Z,6.40
2019-04-10T01:17:52.761Z,6.50
2019-04-10T01:20:21.703Z,6.50
2019-04-10T01:22:50.504Z,6.50
2019-04-10T01:25:19.093Z,6.50
2019-04-10T01:27:48.060Z,6.50
2019-04-10T01:30:16.516Z,6.60
2019-04-10T01:32:45.224Z,6.60
2019-04-10T01:35:13.976Z,6.50
2019-04-10T01:37:51.263Z,6.50
2019-04-10T01:40:14.958Z,6.40
2019-04-10T01:42:44.494Z,6.40
2019-04-10T01:45:14.108Z,6.40
2019-04-10T01:47:43.291Z,6.40
2019-04-10T01:50:12.460Z,6.30
2019-04-10T01:52:41.460Z,6.40
2019-04-10T01:55:22.315Z,6.30
2019-04-10T01:57:39.279Z,6.20
2019-04-10T02:00:11.083Z,6.20
2019-04-10T02:02:51.809Z,6.20
2019-04-10T02:05:20.708Z,6.10
2019-04-10T02:08:01.166Z,6.10
2019-04-10T02:10:20.420Z,6.10
2019-04-10T02:12:49.347Z,6.00
2019-04-10T02:15:17.918Z,6.00
2019-04-10T02:17:46.633Z,6.00
2019-04-10T02:20:15.037Z,6.00
2019-04-10T02:22:43.725Z,5.90
2019-04-10T02:25:12.066Z,5.90
2019-04-10T02:27:40.803Z,5.90
2019-04-10T02:30:12.044Z,5.90
2019-04-10T02:32:43.601Z,5.90
2019-04-10T02:35:13.154Z,5.90
2019-04-10T02:37:41.678Z,5.90
2019-04-10T02:40:10.951Z,5.90
2019-04-10T02:42:41.095Z,5.90
2019-04-10T02:45:12.310Z,5.90
2019-04-10T02:47:41.333Z,5.90
2019-04-10T02:50:11.913Z,5.90
2019-04-10T02:52:43.008Z,5.80
2019-04-10T02:55:11.907Z,5.80
2019-04-10T02:57:41.521Z,5.80
2019-04-10T03:00:12.747Z,5.70
2019-04-10T03:02:41.684Z,5.70
2019-04-10T03:05:10.985Z,5.70
2019-04-10T03:07:40.401Z,5.60
2019-04-10T03:10:23.294Z,5.50
2019-04-10T03:12:40.982Z,5.40
2019-04-10T03:15:12.231Z,5.30
2019-04-10T03:17:40.530Z,5.20
2019-04-10T03:20:09.885Z,5.20
2019-04-10T03:22:38.869Z,5.10
2019-04-10T03:25:08.714Z,5.10
2019-04-10T03:27:36.699Z,5.10
2019-04-10T03:30:10.432Z,5.00
2019-04-10T03:32:50.250Z,5.00
2019-04-10T03:35:21.197Z,5.00
2019-04-10T03:37:50.749Z,5.00
2019-04-10T03:40:19.554Z,5.10
2019-04-10T03:42:49.606Z,5.10
2019-04-10T03:45:17.360Z,5.10
2019-04-10T03:47:45.871Z,5.10
2019-04-10T03:50:14.384Z,5.20
2019-04-10T03:52:43.309Z,5.20
2019-04-10T03:55:12.525Z,5.20
2019-04-10T03:57:41.259Z,5.20
2019-04-10T04:00:09.935Z,5.20
2019-04-10T04:02:38.268Z,5.20
2019-04-10T04:05:06.679Z,5.20
2019-04-10T04:07:35.312Z,5.20
2019-04-10T04:10:06.139Z,5.20
2019-04-10T04:12:35.058Z,5.20
2019-04-10T04:15:03.951Z,5.10
2019-04-10T04:17:32.741Z,5.10
2019-04-10T04:20:02.516Z,5.10
2019-04-10T04:22:30.881Z,5.10
2019-04-10T04:25:00.271Z,5.00
2019-04-10T04:27:29.250Z,5.00
2019-04-10T04:29:57.714Z,5.00
2019-04-10T04:32:25.988Z,5.00
2019-04-10T04:34:54.751Z,5.10
2019-04-10T04:37:23.120Z,5.20
2019-04-10T04:39:52.159Z,5.30
2019-04-10T04:42:20.675Z,5.30
2019-04-10T04:44:48.949Z,5.40
2019-04-10T04:47:18.193Z,5.30
2019-04-10T04:49:46.789Z,5.30
2019-04-10T04:52:16.176Z,5.30
2019-04-10T04:54:45.545Z,5.40
2019-04-10T04:57:14.892Z,5.50
2019-04-10T04:59:43.438Z,5.50
2019-04-10T05:02:12.226Z,5.50
2019-04-10T05:04:41.633Z,5.60
2019-04-10T05:07:10.427Z,5.60
2019-04-10T05:09:40.425Z,5.60
2019-04-10T05:12:09.323Z,5.60
2019-04-10T05:14:37.858Z,5.60
2019-04-10T05:17:06.406Z,5.60
2019-04-10T05:19:36.097Z,5.50
2019-04-10T05:22:05.904Z,5.50
2019-04-10T05:24:34.888Z,5.40
2019-04-10T05:27:03.576Z,5.30
2019-04-10T05:29:32.434Z,5.40
2019-04-10T05:32:01.078Z,5.70
2019-04-10T05:34:29.649Z,5.60
2019-04-10T05:36:58.837Z,5.70
2019-04-10T05:39:39.155Z,5.70
2019-04-10T05:41:56.840Z,5.80
2019-04-10T05:44:25.630Z,5.90
2019-04-10T05:46:54.871Z,6.00
2019-04-10T05:49:24.585Z,6.00
2019-04-10T05:51:53.514Z,6.00
2019-04-10T05:54:22.571Z,5.90
2019-04-10T05:56:51.194Z,5.90
2019-04-10T05:59:19.678Z,6.00
2019-04-10T06:01:48.536Z,6.10
2019-04-10T06:04:17.183Z,6.20
2019-04-10T06:07:23.202Z,6.30
2019-04-10T06:09:55.836Z,6.40
2019-04-10T06:12:22.334Z,6.30
2019-04-10T06:14:50.743Z,6.40
2019-04-10T06:17:20.455Z,6.50
2019-04-10T06:19:49.273Z,6.70
2019-04-10T06:22:18.873Z,6.90
2019-04-10T06:24:47.461Z,7.10
2019-04-10T06:27:16.407Z,7.30
2019-04-10T06:29:46.274Z,7.40
2019-04-10T06:32:14.899Z,7.20
2019-04-10T06:34:43.374Z,7.20
2019-04-10T06:37:11.849Z,7.40
2019-04-10T06:39:42.049Z,7.60
2019-04-10T06:42:10.578Z,7.80
2019-04-10T06:44:39.140Z,8.00
2019-04-10T06:47:07.723Z,8.10
2019-04-10T06:49:36.602Z,7.90
2019-04-10T06:52:06.069Z,8.10
2019-04-10T06:54:34.639Z,8.30
2019-04-10T06:57:03.114Z,8.50
2019-04-10T06:59:32.442Z,8.60
2019-04-10T07:02:14.706Z,8.70
2019-04-10T07:04:42.849Z,8.70
2019-04-10T07:07:08.816Z,8.70
2019-04-10T07:09:33.717Z,8.90
2019-04-10T07:12:04.199Z,9.00
2019-04-10T07:14:36.219Z,9.30
2019-04-10T07:17:06.754Z,8.90
2019-04-10T07:19:34.434Z,9.30
2019-04-10T07:22:08.668Z,10.00
2019-04-10T07:24:37.000Z,10.90
2019-04-10T07:27:05.285Z,11.60
2019-04-10T07:29:34.610Z,12.30
2019-04-10T07:32:07.862Z,12.90
2019-04-10T07:34:34.106Z,12.60
2019-04-10T07:37:02.653Z,12.70
2019-04-10T07:39:33.518Z,13.00
2019-04-10T07:42:02.091Z,13.60
2019-04-10T07:44:30.559Z,13.60
2019-04-10T07:47:00.692Z,13.50
2019-04-10T07:49:30.823Z,13.90
2019-04-10T07:51:58.683Z,14.50
2019-04-10T07:54:27.388Z,14.80
2019-04-10T07:56:55.917Z,14.50
2019-04-10T07:59:25.046Z,14.30
2019-04-10T08:01:53.774Z,13.90
2019-04-10T08:04:22.988Z,13.70
2019-04-10T08:06:52.305Z,14.60
2019-04-10T08:09:20.956Z,15.00
2019-04-10T08:11:49.381Z,15.00
2019-04-10T08:14:17.666Z,13.80
2019-04-10T08:16:46.238Z,13.60
2019-04-10T08:19:14.969Z,13.90
2019-04-10T08:21:44.313Z,14.70
2019-04-10T08:24:13.527Z,15.90
2019-04-10T08:26:42.978Z,16.60
2019-04-10T08:29:12.097Z,16.80
2019-04-10T08:31:40.469Z,17.60
2019-04-10T08:34:08.919Z,17.80
2019-04-10T08:36:37.503Z,18.10
2019-04-10T08:39:06.910Z,17.70
2019-04-10T08:41:35.468Z,17.80
2019-04-10T08:44:04.417Z,17.50
2019-04-10T08:46:33.647Z,17.90
2019-04-10T08:49:03.497Z,18.70
2019-04-10T08:51:33.161Z,18.70
2019-04-10T08:54:02.636Z,18.00
2019-04-10T08:56:32.227Z,18.40
2019-04-10T08:59:01.093Z,19.00
2019-04-10T09:01:30.110Z,19.20
2019-04-10T09:03:59.426Z,19.70
2019-04-10T09:06:27.855Z,20.10
2019-04-10T09:08:57.170Z,20.80
2019-04-10T09:11:28.410Z,19.90
2019-04-10T09:13:56.915Z,19.60
2019-04-10T09:16:26.652Z,20.30
2019-04-10T09:18:55.767Z,20.90
2019-04-10T09:21:24.473Z,21.60
2019-04-10T09:23:55.715Z,22.60
2019-04-10T09:26:22.447Z,23.20
2019-04-10T09:28:51.126Z,23.30
2019-04-10T09:31:19.932Z,21.90
2019-04-10T09:33:49.557Z,21.80
2019-04-10T09:36:18.371Z,22.50
2019-04-10T09:38:47.929Z,22.10
2019-04-10T09:41:17.380Z,21.90
2019-04-10T09:43:46.086Z,22.10
2019-04-10T09:46:14.494Z,22.10
2019-04-10T09:48:42.851Z,22.30
2019-04-10T09:51:11.775Z,21.80
2019-04-10T09:53:41.266Z,21.90
2019-04-10T09:56:11.522Z,21.90
2019-04-10T09:58:40.560Z,21.40
2019-04-10T10:01:10.450Z,20.70
2019-04-10T10:03:40.004Z,21.10
2019-04-10T10:06:22.027Z,20.60
2019-04-10T10:08:40.135Z,20.30
2019-04-10T10:11:09.602Z,19.80
2019-04-10T10:13:39.312Z,19.80
2019-04-10T10:16:08.513Z,20.20
2019-04-10T10:18:37.390Z,18.20
2019-04-10T10:21:06.079Z,17.70
2019-04-10T10:23:35.995Z,18.90
2019-04-10T10:26:03.835Z,20.30
2019-04-10T10:28:33.226Z,19.50
2019-04-10T10:31:02.279Z,18.60
2019-04-10T10:33:30.735Z,17.80
2019-04-10T10:35:59.859Z,17.20
2019-04-10T10:38:29.440Z,16.90
2019-04-10T10:40:59.027Z,16.70
2019-04-10T10:43:28.695Z,17.20
2019-04-10T10:45:57.257Z,17.30
2019-04-10T10:48:26.015Z,17.30
2019-04-10T10:50:54.642Z,18.00
2019-04-10T10:53:24.054Z,18.20
2019-04-10T10:55:53.870Z,18.10
2019-04-10T10:58:22.125Z,18.60
2019-04-10T11:00:51.648Z,18.70
2019-04-10T11:03:20.422Z,19.10
2019-04-10T11:05:49.175Z,19.30
2019-04-10T11:08:17.913Z,19.60
2019-04-10T11:10:50.710Z,20.10
2019-04-10T11:13:16.444Z,19.50
2019-04-10T11:15:46.125Z,17.70
2019-04-10T11:18:15.774Z,17.50
2019-04-10T11:20:44.280Z,17.20
2019-04-10T11:23:13.354Z,16.80
2019-04-10T11:25:41.865Z,17.10
2019-04-10T11:28:10.151Z,18.30
2019-04-10T11:30:38.767Z,19.30
2019-04-10T11:33:08.529Z,19.40
2019-04-10T11:35:37.404Z,19.40
2019-04-10T11:38:06.024Z,19.10
2019-04-10T11:40:35.024Z,18.50
2019-04-10T11:43:05.119Z,17.10
2019-04-10T11:45:41.321Z,16.40
2019-04-10T11:48:03.595Z,16.10
2019-04-10T11:50:32.745Z,15.70
2019-04-10T11:53:02.208Z,15.70
2019-04-10T11:55:37.988Z,15.70
2019-04-10T11:58:01.394Z,15.70
2019-04-10T12:03:10.225Z,16.30
2019-04-10T12:05:41.132Z,16.10
2019-04-10T12:08:33.626Z,15.90
2019-04-10T12:13:10.233Z,15.60
2019-04-10T12:15:39.033Z,15.50
2019-04-10T12:18:08.567Z,15.50
2019-04-10T12:20:37.486Z,15.40
2019-04-10T12:23:05.904Z,15.40
2019-04-10T12:25:34.681Z,15.70
2019-04-10T12:28:03.346Z,15.50
2019-04-10T12:30:31.813Z,15.10
2019-04-10T12:33:01.091Z,15.00
2019-04-10T12:35:29.786Z,14.90
2019-04-10T12:38:02.851Z,14.50
2019-04-10T12:40:28.548Z,14.20
2019-04-10T12:42:57.197Z,14.30
2019-04-10T12:45:26.417Z,14.20
2019-04-10T12:47:54.963Z,14.10
2019-04-10T12:50:23.325Z,14.00
2019-04-10T12:52:51.747Z,14.10
2019-04-10T12:55:20.565Z,13.90
2019-04-10T12:57:49.194Z,13.80
2019-04-10T13:00:20.033Z,13.90
2019-04-10T13:02:48.667Z,13.60
2019-04-10T13:05:16.990Z,13.50
2019-04-10T13:07:45.616Z,13.70
2019-04-10T13:10:14.937Z,13.60
2019-04-10T13:12:43.410Z,13.10
2019-04-10T13:15:13.081Z,13.00
2019-04-10T13:17:42.751Z,12.90
2019-04-10T13:20:13.508Z,12.70
2019-04-10T13:22:42.356Z,12.60
2019-04-10T13:25:12.306Z,12.50
2019-04-10T13:27:41.185Z,12.60
2019-04-10T13:30:13.060Z,12.40
2019-04-10T13:32:42.432Z,12.30
2019-04-10T13:35:11.162Z,12.20
2019-04-10T13:37:40.024Z,12.20
2019-04-10T13:40:08.391Z,12.10
2019-04-10T13:42:37.302Z,12.00
2019-04-10T13:45:07.307Z,11.90
2019-04-10T13:47:35.861Z,11.90
2019-04-10T13:50:06.423Z,11.80
2019-04-10T13:52:36.528Z,11.70
2019-04-10T13:55:05.836Z,11.80
2019-04-10T13:57:34.762Z,11.70
2019-04-10T14:00:05.717Z,11.70
2019-04-10T14:02:36.016Z,11.70
2019-04-10T14:05:11.344Z,11.50
2019-04-10T14:07:40.296Z,11.20
2019-04-10T14:10:10.623Z,11.20
2019-04-10T14:12:39.553Z,11.00
2019-04-10T14:15:08.129Z,10.90
2019-04-10T14:17:37.621Z,10.90
2019-04-10T14:20:07.002Z,10.90
2019-04-10T14:22:37.949Z,10.90
2019-04-10T14:25:09.468Z,10.90
2019-04-10T14:27:38.556Z,10.90
2019-04-10T14:30:09.709Z,10.80
2019-04-10T14:32:37.990Z,10.90
2019-04-10T14:35:08.221Z,11.00
2019-04-10T14:37:37.915Z,10.90
2019-04-10T14:40:10.070Z,10.90
2019-04-10T14:42:38.575Z,11.00
2019-04-10T14:45:08.894Z,11.00
2019-04-10T14:47:39.181Z,11.00
2019-04-10T14:50:09.421Z,11.10
2019-04-10T14:52:39.490Z,11.20
2019-04-10T14:55:16.499Z,11.20
2019-04-10T14:57:46.119Z,11.20
2019-04-10T15:00:26.542Z,11.10
2019-04-10T15:03:00.060Z,11.20
2019-04-10T15:05:27.941Z,11.10
2019-04-10T15:07:57.488Z,11.10
2019-04-10T15:10:28.458Z,10.90
2019-04-10T15:13:13.144Z,10.80
2019-04-10T15:15:39.192Z,10.80
2019-04-10T15:18:08.846Z,10.60
2019-04-10T15:20:37.893Z,10.50
2019-04-10T15:23:12.334Z,10.50
2019-04-10T15:25:41.605Z,10.50
2019-04-10T15:28:10.457Z,10.40
2019-04-10T15:30:39.140Z,10.30
2019-04-10T15:33:07.517Z,10.30
2019-04-10T15:35:36.068Z,10.20
2019-04-10T15:38:04.466Z,10.20
2019-04-10T15:40:32.804Z,10.10
2019-04-10T15:43:02.993Z,10.00
2019-04-10T15:45:32.492Z,10.00
2019-04-10T15:48:03.119Z,10.00
2019-04-10T15:50:32.591Z,10.00
2019-04-10T15:53:02.121Z,10.10
2019-04-10T15:55:32.041Z,10.00
2019-04-10T15:58:02.264Z,10.10
2019-04-10T16:00:31.269Z,10.10
2019-04-10T16:03:00.670Z,10.10
2019-04-10T16:05:31.441Z,10.00
2019-04-10T16:08:00.779Z,10.00
2019-04-10T16:10:34.280Z,10.00
2019-04-10T16:13:22.536Z,10.00
2019-04-10T16:15:56.434Z,9.90
2019-04-10T16:18:28.914Z,9.90
2019-04-10T16:20:57.303Z,9.80
2019-04-10T16:23:31.287Z,9.80
2019-04-10T16:26:00.878Z,9.80
2019-04-10T16:28:29.734Z,9.70
2019-04-10T16:30:59.269Z,9.70
2019-04-10T16:33:27.922Z,9.50
2019-04-10T16:35:56.934Z,9.50
2019-04-10T16:38:26.716Z,9.40
2019-04-10T16:40:56.377Z,9.30
2019-04-10T16:43:26.344Z,9.30
2019-04-10T16:45:55.164Z,9.30
2019-04-10T16:48:24.801Z,9.20
2019-04-10T16:50:54.039Z,9.20
2019-04-10T16:53:22.432Z,9.10
2019-04-10T16:55:54.535Z,9.10
2019-04-10T16:58:23.459Z,9.00
2019-04-10T17:00:51.972Z,8.90
2019-04-10T17:03:21.729Z,8.90
2019-04-10T17:05:50.247Z,8.90
2019-04-10T17:08:19.605Z,8.80
2019-04-10T17:10:51.012Z,8.70
2019-04-10T17:13:20.686Z,8.70
2019-04-10T17:15:50.320Z,8.70
2019-04-10T17:18:19.369Z,8.60
2019-04-10T17:20:48.801Z,8.60
2019-04-10T17:23:18.517Z,8.60
2019-04-10T17:25:48.710Z,8.50
2019-04-10T17:28:18.421Z,8.50
2019-04-10T17:30:46.907Z,8.50
2019-04-10T17:33:16.453Z,8.50
2019-04-10T17:35:45.612Z,8.40
2019-04-10T17:38:14.317Z,8.30
2019-04-10T17:40:49.918Z,8.30
2019-04-10T17:43:12.932Z,8.20
2019-04-10T17:45:42.665Z,8.20
2019-04-10T17:48:11.695Z,8.20
2019-04-10T17:50:50.377Z,8.10
2019-04-10T17:53:18.869Z,8.10
2019-04-10T17:55:49.553Z,8.10
2019-04-10T17:58:19.087Z,8.00
2019-04-10T18:00:49.543Z,8.00
2019-04-10T18:03:18.939Z,7.90
2019-04-10T18:05:51.505Z,7.90
2019-04-10T18:08:21.196Z,7.90
2019-04-10T18:10:53.011Z,7.90
2019-04-10T18:13:20.616Z,7.80
2019-04-10T18:15:50.451Z,7.80
2019-04-10T18:18:18.330Z,7.80
2019-04-10T18:20:46.695Z,7.70
2019-04-10T18:23:15.509Z,7.70
2019-04-10T18:25:44.458Z,7.70
2019-04-10T18:28:13.723Z,7.70
2019-04-10T18:30:42.094Z,7.70
2019-04-10T18:33:10.542Z,7.60
2019-04-10T18:35:39.031Z,7.70
2019-04-10T18:38:08.948Z,7.60
2019-04-10T18:40:37.426Z,7.60
2019-04-10T18:43:05.833Z,7.60
2019-04-10T18:45:34.211Z,7.60
2019-04-10T18:48:02.806Z,7.70
2019-04-10T18:50:32.128Z,7.70
2019-04-10T18:53:01.572Z,7.70
2019-04-10T18:55:30.173Z,7.70
2019-04-10T18:57:59.154Z,7.70
2019-04-10T19:00:30.173Z,7.70
2019-04-10T19:03:09.599Z,7.60
2019-04-10T19:05:40.284Z,7.60
2019-04-10T19:08:11.219Z,7.50
2019-04-10T19:10:39.697Z,7.40
2019-04-10T19:13:08.231Z,7.40
2019-04-10T19:15:37.160Z,7.40
2019-04-10T19:18:07.585Z,7.40
2019-04-10T19:20:36.104Z,7.40
2019-04-10T19:23:04.523Z,7.30
2019-04-10T19:25:34.731Z,7.30
2019-04-10T19:28:04.454Z,7.40
2019-04-10T19:30:43.880Z,7.30
2019-04-10T19:33:12.295Z,7.40
2019-04-10T19:35:41.381Z,7.40
2019-04-10T19:38:09.883Z,7.40
2019-04-10T19:40:38.752Z,7.40
2019-04-10T19:43:08.288Z,7.30
2019-04-10T19:45:36.828Z,7.30
2019-04-10T19:48:06.790Z,7.40
2019-04-10T19:50:35.146Z,7.40
2019-04-10T19:53:04.750Z,7.40
2019-04-10T19:55:33.363Z,7.40
2019-04-10T19:58:01.817Z,7.30
2019-04-10T20:00:33.300Z,7.40
2019-04-10T20:03:01.646Z,7.40
2019-04-10T20:05:31.552Z,7.30
2019-04-10T20:07:59.637Z,7.30
2019-04-10T20:10:29.605Z,7.40
2019-04-10T20:12:57.483Z,7.30
2019-04-10T20:15:26.731Z,7.30
2019-04-10T20:17:55.315Z,7.30
2019-04-10T20:20:23.680Z,7.30
2019-04-10T20:22:53.482Z,7.30
2019-04-10T20:25:22.081Z,7.30
2019-04-10T20:27:52.057Z,7.30
2019-04-10T20:30:21.519Z,7.20
2019-04-10T20:32:50.221Z,7.20
2019-04-10T20:35:20.214Z,7.20
2019-04-10T20:37:49.182Z,7.20
2019-04-10T20:40:19.136Z,7.20
2019-04-10T20:42:47.141Z,7.20
2019-04-10T20:45:15.977Z,7.20
2019-04-10T20:47:44.295Z,7.10
2019-04-10T20:50:12.679Z,7.10
2019-04-10T20:52:41.081Z,7.10
2019-04-10T20:55:09.601Z,7.00
2019-04-10T20:57:38.060Z,7.00
2019-04-10T21:00:09.472Z,6.90
2019-04-10T21:02:38.794Z,7.00
2019-04-10T21:05:09.767Z,6.90
2019-04-10T21:07:37.429Z,6.90
2019-04-10T21:10:08.545Z,6.90
2019-04-10T21:12:37.007Z,6.90
2019-04-10T21:15:09.071Z,6.90
2019-04-10T21:17:37.943Z,6.80
2019-04-10T21:20:13.146Z,6.90
2019-04-10T21:22:40.669Z,6.90
2019-04-10T21:25:10.298Z,6.90
2019-04-10T21:27:39.661Z,6.90
2019-04-10T21:30:17.790Z,6.90
2019-04-10T21:32:58.304Z,6.90
2019-04-10T21:35:31.231Z,6.90
2019-04-10T21:37:59.764Z,6.90
2019-04-10T21:40:28.668Z,6.90
2019-04-10T21:42:58.083Z,6.90
2019-04-10T21:45:27.038Z,6.90
2019-04-10T21:47:55.602Z,6.90
2019-04-10T21:50:24.743Z,6.90
2019-04-10T21:52:53.169Z,6.90
2019-04-10T21:55:22.460Z,6.90
2019-04-10T21:57:51.828Z,6.90
2019-04-10T22:00:21.865Z,6.90
2019-04-10T22:02:52.023Z,6.90
2019-04-10T22:05:19.834Z,6.80
2019-04-10T22:07:50.317Z,6.90
2019-04-10T22:10:36.299Z,6.80
2019-04-10T22:13:05.889Z,6.80
2019-04-10T22:15:37.203Z,6.80
2019-04-10T22:18:07.319Z,6.90
2019-04-10T22:20:36.052Z,6.90
2019-04-10T22:23:04.828Z,6.80
2019-04-10T22:25:36.067Z,6.80
2019-04-10T22:28:04.565Z,6.90
2019-04-10T22:30:33.392Z,6.80
2019-04-10T22:33:01.649Z,6.80
2019-04-10T22:35:31.323Z,6.80
2019-04-10T22:38:00.364Z,6.80
2019-04-10T22:40:29.111Z,6.80
2019-04-10T22:42:57.783Z,6.80
2019-04-10T22:45:29.223Z,6.80
2019-04-10T22:47:58.600Z,6.70
2019-04-10T22:50:27.636Z,6.80
2019-04-10T22:52:57.706Z,6.70
2019-04-10T22:55:26.673Z,6.70
2019-04-10T22:57:55.332Z,6.70
2019-04-10T23:00:33.483Z,6.60
2019-04-10T23:03:03.204Z,6.60
2019-04-10T23:05:32.363Z,6.60
2019-04-10T23:08:01.275Z,6.60
2019-04-10T23:10:29.857Z,6.60
2019-04-10T23:13:02.870Z,6.60
2019-04-10T23:15:28.492Z,6.60
2019-04-10T23:17:57.261Z,6.60
2019-04-10T23:20:26.283Z,6.60
2019-04-10T23:22:55.009Z,6.60
2019-04-10T23:25:29.848Z,6.60
2019-04-10T23:27:58.904Z,6.70
2019-04-10T23:30:28.743Z,6.70
2019-04-10T23:32:57.573Z,6.70
2019-04-10T23:35:26.144Z,6.60
2019-04-10T23:37:55.211Z,6.70
2019-04-10T23:40:23.629Z,6.70
2019-04-10T23:43:02.657Z,6.70
2019-04-10T23:45:22.490Z,6.70
2019-04-10T23:47:51.137Z,6.60
2019-04-10T23:50:19.516Z,6.70
2019-04-10T23:52:47.986Z,6.70
2019-04-10T23:55:17.645Z,6.70
2019-04-10T23:57:46.671Z,6.70
